Byron Bay Winter Whales (2.3Km) 07 May 06 Team Results Cache:19/12/2018 2:40:53 AM
Ocean Swim Series
OvP Name Time Swim Category Gender CtP Points
1 Josh Santacaterina 0:22:01 M Open M 1 100.00
2 Cameron Smith 0:22:18 M Open M 2 99.55
3 Melissa Gorman 0:22:29 F Open F 1 100.00
4 Ky Hurst 0:22:39 M Open M 3 99.00
5 Dev Lahey 0:22:48 M Open M 4 98.76
6 Kate Brookes-Peterson 0:23:48 F Open F 2 97.54
7 Meagen Nay 0:23:50 F Open F 3 97.46
8 Iain Melhuish 0:24:29 M 25-29 M 1 96.14
9 Michael Fry 0:24:59 M 12-15 M 1 95.37
10 Xavier Clarke 0:25:16 M Open M 5 94.94
11 Joseph Lampe 0:25:18 M Open M 6 94.88
12 Glen Lawrence 0:25:20 M 45-49 M 1 94.84
13 Stephen Fry 0:25:22 M 45-49 M 2 94.79
14 Trent Goulding 0:25:28 M Open M 7 94.62
15 Tanyn Lyndon 0:25:35 M 12-15 M 2 94.44
16 Nicholas Fewster 0:25:37 M 16-19 M 1 94.39
17 Lynton Hurt 0:25:42 M 12-15 M 3 94.27
18 Roger Muspratt 0:25:45 M 45-49 M 3 94.19
19 Duane Cannell 0:26:22 M 35-39 M 1 93.22
20 Jasmine Collins 0:26:25 F 25-29 F 1 92.63
20 Peter Thiel 0:26:25 M 30-34 M 1 93.15
22 Nadi Canning 0:26:30 F Open F 4 92.46
23 Lawrence Reece 0:26:36 M 45-49 M 4 92.85
24 Oliver Hulbert 0:26:39 M 12-15 M 4 92.78
25 Kirsty Bowlay 0:26:40 F 30-34 F 1 92.15
26 Ian Zilm 0:26:42 M 12-15 M 5 92.70
27 Tim Peacock 0:26:43 M 35-39 M 2 92.69
28 Marcus Riches 0:26:45 M 35-39 M 3 92.62
29 Mason Fettell 0:26:48 M 12-15 M 6 92.53
30 Elke Jacobsen 0:26:52 F 12-15 F 1 91.77
31 Troy Strathearn 0:27:01 M 30-34 M 2 92.20
32 Gemma Johnson 0:27:05 F 16-19 F 1 91.38
33 Sho Saito 0:27:11 M 12-15 M 7 91.94
34 Lauren Tucker 0:27:12 F 16-19 F 2 91.16
35 Chelsea Ingwersen 0:27:17 F 25-29 F 2 91.00
36 Greg Bush 0:27:21 M 50-54 M 1 91.69
37 Nicholas Fry 0:27:28 M 12-15 M 8 91.50
38 Timothy Smith 0:27:29 M 16-19 M 2 91.48
39 Alison Peakman 0:27:37 F 25-29 F 3 90.36
40 Alanna Hale 0:27:43 F 20-24 F 1 90.19
41 Nicole Dean 0:27:47 F 16-19 F 3 90.05
42 Mike Grey 0:27:50 M 40-44 M 1 90.94
43 Tanya de Boer 0:27:51 F 20-24 F 2 89.92
44 Shaun Clyne 0:27:57 M 35-39 M 4 90.77
45 Ingilby Dickson 0:27:57 M 45-49 M 5 90.75
46 Robert Wallace 0:27:59 M 16-19 M 3 90.71
47 Rebecca Foxton 0:28:03 F 30-34 F 2 89.56
48 Scott Sewell 0:28:03 M 35-39 M 5 90.59
49 Andrew Stevens 0:28:04 M 40-44 M 2 90.58
50 Sharyn Adams 0:28:05 F 35-39 F 1 89.48
51 Graham Bendeich 0:28:07 M 45-49 M 6 90.51
52 David Prince 0:28:11 M 16-19 M 4 90.38
53 Ian Findlay 0:28:12 M 40-44 M 3 90.36
54 Jason Bishop 0:28:12 M 12-15 M 9 90.36
55 John Nicholls 0:28:14 M 45-49 M 7 90.32
56 Adam Todd 0:28:16 M 40-44 M 4 90.25
57 Emerson Reece 0:28:18 M 12-15 M 10 90.22
58 Clive Robinson 0:28:30 M 50-54 M 2 89.90
59 Ben Walters 0:28:33 M 25-29 M 2 89.81
60 Brideen Twigger 0:28:35 F 12-15 F 2 88.57
61 Shannon Hulbert-Green 0:28:35 F 12-15 F 3 88.55
62 Wendy de Boer 0:28:36 F 20-24 F 3 88.54
63 Katie Goodall 0:28:37 F 25-29 F 4 88.50
64 Risu Saito 0:28:37 F 12-15 F 4 88.49
65 Justin Drew 0:28:38 M 30-34 M 3 89.69
66 Peter Suba 0:28:39 M 55-59 M 1 89.67
67 Nathan Gray 0:28:39 M 12-15 M 11 89.65
68 Stewart Saunders 0:28:40 M 20-24 M 1 89.63
69 Annalie Houston 0:28:42 F 25-29 F 5 88.34
70 Colin Hannah 0:28:47 M 25-29 M 3 89.45
71 Craig Plunkett 0:28:52 M 35-39 M 6 89.33
72 Kurt Tutt 0:28:54 M 25-29 M 4 89.27
73 Joe Brunner 0:28:55 M 50-54 M 3 89.24
74 David Jordan 0:28:55 M 45-49 M 8 89.24
75 Clancy Coker 0:28:56 M 16-19 M 5 89.21
76 Nigel Cluer 0:28:58 M 50-54 M 4 89.18
77 Rique Sharman 0:28:59 F 16-19 F 4 87.81
78 Michio McMullen 0:29:03 M 35-39 M 7 89.05
79 David Pyne 0:29:03 M 35-39 M 8 89.04
80 Matt Lamont 0:29:04 M 25-29 M 5 89.03
81 Jeff Norman 0:29:04 M 45-49 M 9 89.01
82 Richard Jones 0:29:12 M 35-39 M 9 88.81
83 Ben Langfield 0:29:13 M 35-39 M 10 88.77
84 Cassie Hoare 0:29:14 F 20-24 F 4 87.35
85 Geoff Bensley 0:29:17 M 40-44 M 5 88.68
86 Chris Wight 0:29:19 M 25-29 M 6 88.63
87 Simon Richards 0:29:19 M 20-24 M 2 88.63
88 Allison Hedges 0:29:25 F 30-34 F 3 87.01
89 Joel Ryan 0:29:25 M 25-29 M 7 88.47
90 Greg Reddan 0:29:26 M 55-59 M 2 88.44
91 Kelly Wilson 0:29:32 F 16-19 F 5 86.79
92 Matthew Thomas 0:29:33 M 30-34 M 4 88.27
93 Neil Smith 0:29:39 M 35-39 M 11 88.11
94 Michael Hering 0:29:39 M 45-49 M 10 88.10
95 Tristan Zobel 0:29:42 M 16-19 M 6 88.03
96 Niels Kristensen 0:29:49 M Open M 8 87.86
97 Justin McEvoy 0:29:49 M 30-34 M 5 87.85
98 Andrew Davis 0:29:50 M 45-49 M 11 87.83
99 Christopher Terlich 0:29:50 M 50-54 M 5 87.82
100 Kurtis Rainnie 0:29:53 M 12-15 M 12 87.75
101 Mal Lewis 0:29:54 M 40-44 M 6 87.71
102 Tina Bowden 0:29:59 F 25-29 F 6 85.92
103 Wayne Thrupp 0:30:00 M 50-54 M 6 87.57
104 Samantha Lawrence 0:30:02 F 12-15 F 5 85.86
105 Cyril Baldock 0:30:03 M 60-64 M 1 87.49
106 Mark Fuidge 0:30:06 M 40-44 M 7 87.42
107 Jim Dougherty 0:30:06 M 50-54 M 7 87.41
108 Williams Phillips 0:30:06 M 25-29 M 8 87.40
109 Peter Fahey 0:30:07 M 40-44 M 8 87.37
110 Colin Crompton 0:30:14 M 45-49 M 12 87.20
111 Luke Stafford 0:30:14 M 20-24 M 3 87.19
112 Wade Smith 0:30:17 M 25-29 M 9 87.13
113 Jamie Howell 0:30:18 F 12-15 F 6 85.35
114 Louise Santos 0:30:19 F 35-39 F 2 85.30
115 Jeda Greenlaw 0:30:20 F 12-15 F 7 85.29
116 Paul Moosberger 0:30:20 M 45-49 M 13 87.03
117 Richard Mason 0:30:22 M 25-29 M 10 87.00
118 Michael Marlin 0:30:22 M 50-54 M 8 87.00
119 Helen Bailey 0:30:22 F 35-39 F 3 85.22
120 Jonathan Patterson 0:30:22 M 55-59 M 3 86.98
121 Louis St Laurent 0:30:23 M 45-49 M 14 86.97
122 Jeremy Bennett 0:30:24 M 30-34 M 6 86.95
123 Adam Dew 0:30:25 M 40-44 M 9 86.90
124 Gregory Burton 0:30:26 M 45-49 M 15 86.88
125 Stephen Mamouney 0:30:26 M 40-44 M 10 86.88
126 Peter Watt 0:30:27 M 45-49 M 16 86.85
127 Robert Fleming 0:30:28 M 30-34 M 7 86.85
128 Charles Richards 0:30:28 M 55-59 M 4 86.84
129 Christopher Yencken 0:30:28 M 50-54 M 9 86.84
130 Terry Fox 0:30:29 M 50-54 M 10 86.82
131 Craig Burton 0:30:29 M 45-49 M 17 86.81
132 Wal Mayr 0:30:31 M 45-49 M 18 86.75
133 Terry McGee 0:30:31 M 55-59 M 5 86.75
134 Francis Quinn 0:30:33 M 50-54 M 11 86.71
135 Andrew Statham 0:30:33 M 30-34 M 8 86.70
136 Rick Stapleton 0:30:34 M 30-34 M 9 86.68
137 Mike Jessop 0:30:35 M 55-59 M 6 86.65
138 Jim Houston 0:30:36 M 50-54 M 12 86.63
139 Jeremy Whitehurst 0:30:36 M 35-39 M 12 86.62
140 Josh O'Donnell 0:30:37 M 16-19 M 7 86.60
141 Karen Robinson 0:30:38 F 45-49 F 1 84.72
142 Stacey Williamson 0:30:38 F 12-15 F 8 84.71
143 Danielle Loveless 0:30:39 F 25-29 F 7 84.70
144 Heli Murray 0:30:39 F 35-39 F 4 84.70
145 Ian Young 0:30:39 M 50-54 M 13 86.55
146 Helen Cox 0:30:40 F 45-49 F 2 84.67
147 Amelia Kelly 0:30:42 F 20-24 F 5 84.58
148 Kirsty Thomson 0:30:42 F 25-29 F 8 84.58
149 Carly Deeath 0:30:42 F 25-29 F 9 84.58
150 Justine de Mestre 0:30:43 F 35-39 F 5 84.57
151 Liala Davighi 0:30:43 F 40-44 F 1 84.57
152 Keely Morris 0:30:43 F 16-19 F 6 84.56
153 Alex Pope 0:30:44 M 25-29 M 11 86.43
154 Carolyn de Souza 0:30:46 F 40-44 F 2 84.47
155 Michael Williams 0:30:46 M 55-59 M 7 86.36
156 Simon Jones 0:30:47 M 30-34 M 10 86.34
157 Alice Manchon 0:30:48 F 16-19 F 7 84.41
158 Chris Glover 0:30:48 M 25-29 M 12 86.30
159 Jamie Karlson 0:30:48 M 30-34 M 11 86.30
160 Chris Willey 0:30:50 M 30-34 M 12 86.25
161 Terri Taylor 0:30:52 F 45-49 F 3 84.29
162 Caroline Watson 0:30:52 F 40-44 F 3 84.27
163 Michael Daly 0:30:55 M 50-54 M 14 86.14
164 Paul Cromack 0:30:58 M 30-34 M 13 86.04
165 Adam Champion 0:30:59 M 40-44 M 11 86.03
166 Brett Lyndon 0:31:05 M 40-44 M 12 85.88
167 Nigel Oram 0:31:05 M 40-44 M 13 85.86
168 Stephen Boakes 0:31:06 M 40-44 M 14 85.84
169 Geoff Taylor 0:31:06 M 45-49 M 19 85.84
170 Geoff Frost 0:31:07 M 50-54 M 15 85.83
171 Garry Templeman 0:31:08 M 45-49 M 20 85.79
172 Ken Adams 0:31:10 M 50-54 M 16 85.73
173 Barry Aplin 0:31:14 M 55-59 M 8 85.64
174 Jo McConnell 0:31:14 F 30-34 F 4 83.58
175 Joanne Court 0:31:15 F 40-44 F 4 83.56
176 Renee Turner 0:31:15 F 12-15 F 9 83.55
177 David Zemek 0:31:16 M 50-54 M 17 85.60
178 Kris Pimpini 0:31:17 M 25-29 M 13 85.55
179 Karen Degnian 0:31:20 F 40-44 F 5 83.41
180 Gethin Thomas 0:31:21 M 35-39 M 13 85.47
181 Alex Screen 0:31:21 M 40-44 M 15 85.47
182 Kent McGregor 0:31:25 M 50-54 M 18 85.36
183 John Robinson 0:31:26 M 45-49 M 21 85.33
184 Carmen Fraser-Holmes 0:31:26 F 40-44 F 6 83.21
185 Cissi Widen 0:31:30 F 25-29 F 10 83.10
186 Rachel Bonhote-Mead 0:31:30 F 20-24 F 6 83.08
187 Harley Graham 0:31:31 M 30-34 M 14 85.20
188 Jamie Kernot 0:31:32 M 30-34 M 15 85.19
189 Graeme Cameron 0:31:33 M 40-44 M 16 85.15
190 Raymond Bertazzo 0:31:35 M 40-44 M 17 85.11
191 Craig Gogoll 0:31:35 M 45-49 M 22 85.11
192 Peter Ambrose 0:31:35 M 45-49 M 23 85.09
193 Mark Powell 0:31:40 M 50-54 M 19 84.97
194 Luke Morgan 0:31:42 M 40-44 M 18 84.92
195 Bruce Baird 0:31:45 M 60-64 M 2 84.85
196 Tony Trimble 0:31:45 M 40-44 M 19 84.84
197 Wendy Abbott 0:31:45 F 50-54 F 1 82.63
198 Alan Preston 0:31:45 M 45-49 M 24 84.83
199 Joseph Mashett 0:31:48 M 45-49 M 25 84.76
200 Leigh Tickle 0:31:51 M 60-64 M 3 84.67
201 Barrie Crichton 0:31:53 M 45-49 M 26 84.64
202 Andrew Miller 0:31:57 M 50-54 M 20 84.53
203 Robert Hooper 0:31:57 M 65-69 M 1 84.51
204 Mark Powell 0:32:00 M 45-49 M 27 84.46
205 Jacqui Hunt 0:32:01 F 20-24 F 7 82.11
206 Dean Hancock 0:32:02 M 35-39 M 14 84.39
207 Phillip Mathers 0:32:03 M 55-59 M 9 84.38
208 Leah Cook 0:32:03 F 30-34 F 5 82.07
209 James Crawford 0:32:03 M 65-69 M 2 84.36
210 Michael Pignolet 0:32:03 M 40-44 M 20 84.36
211 Philip Keir 0:32:04 M 40-44 M 21 84.34
212 Michael Rogan 0:32:06 M 30-34 M 16 84.29
213 Mark Ryan 0:32:06 M 40-44 M 22 84.28
214 Glen Cremer 0:32:07 M 35-39 M 15 84.26
215 Kristal McGlynn 0:32:16 F 30-34 F 6 81.64
216 Sophie Couch 0:32:18 F 12-15 F 10 81.61
217 Janice Croft 0:32:20 F 60-64 F 1 81.54
218 Damien Fanning 0:32:20 M 25-29 M 14 83.93
219 Scott Wallace 0:32:23 M 35-39 M 16 83.85
220 Tiger Dessent 0:32:23 M 35-39 M 17 83.84
221 Danielle Turner 0:32:24 F 12-15 F 11 81.42
222 Simon Duffy 0:32:24 M 40-44 M 23 83.83
223 Justin Boulton 0:32:24 M 40-44 M 24 83.83
224 Iain Gunn 0:32:26 M 35-39 M 18 83.78
225 John Gudgeon 0:32:26 M 60-64 M 4 83.77
226 Randall Evans 0:32:28 M 30-34 M 17 83.73
227 David Lovegrove 0:32:28 M 45-49 M 28 83.73
228 Catherine Harvey 0:32:30 F 20-24 F 8 81.23
229 Don Opie 0:32:31 M 45-49 M 29 83.64
230 Stephen Thomas 0:32:32 M 50-54 M 21 83.63
231 Rod Couch 0:32:32 M 60-64 M 5 83.62
232 Chris Outteridge 0:32:33 F 40-44 F 7 81.13
233 Lynne Hackett 0:32:34 F 45-49 F 4 81.11
234 Katrina van Haeringen 0:32:34 F 35-39 F 6 81.11
235 Alexandra Evans 0:32:34 F 50-54 F 2 81.10
236 Phillip Harding 0:32:34 M 60-64 M 6 83.56
237 Ian Butler 0:32:35 M 35-39 M 19 83.54
238 Peter Meagher 0:32:35 M 45-49 M 30 83.54
239 Melissa Blundell 0:32:36 F 30-34 F 7 81.03
240 Graeme Washington 0:32:36 M 55-59 M 10 83.51
241 Patricia Irene Utschink 0:32:38 F 35-39 F 7 80.96
242 John Caporn 0:32:39 M 60-64 M 7 83.43
243 Bill Schulte 0:32:39 M 50-54 M 22 83.43
244 Ben Goedhart 0:32:39 M 25-29 M 15 83.43
245 Paul Mayberry 0:32:40 M 55-59 M 11 83.41
246 Greg Turner 0:32:41 M 55-59 M 12 83.39
247 Bryon Lyndon 0:32:42 M 45-49 M 31 83.35
248 Peta Schulte 0:32:45 F 16-19 F 8 80.75
249 Bridget Barnes 0:32:45 F 12-15 F 12 80.75
250 Ann Lewis 0:32:45 F 35-39 F 8 80.74
251 Giles Wilson 0:32:48 M 30-34 M 18 83.21
252 Gavin Farrell 0:32:50 M 35-39 M 20 83.15
253 Mick Smith 0:32:53 M 40-44 M 25 83.08
254 S Thomas 0:32:55 M 45-49 M 32 83.02
255 Brett Clements 0:32:56 M 45-49 M 33 83.00
256 Tim Gotterson 0:32:56 M 45-49 M 34 83.00
257 Michael McKelvie 0:32:57 M 40-44 M 26 82.98
258 Biodie Moir 0:32:58 M 16-19 M 8 82.95
259 Lachlan Reece 0:32:58 M 12-15 M 13 82.94
260 Ellie Leaver 0:32:59 F 12-15 F 13 80.31
261 Vivian John Oakes 0:32:59 M 50-54 M 23 82.91
262 Mark Preston 0:33:00 M 50-54 M 24 82.89
263 Veronica Monkley 0:33:00 F 25-29 F 11 80.27
264 Kara Mackay 0:33:01 F 12-15 F 14 80.24
265 Michael Gudgeon 0:33:02 M 45-49 M 35 82.83
266 Richard Purchas 0:33:06 M 45-49 M 36 82.75
267 Peter Slattery 0:33:06 M 45-49 M 37 82.74
268 Paul Dawson 0:33:06 M 40-44 M 27 82.73
269 Nicholas Allen 0:33:08 M 30-34 M 19 82.69
270 Trineane McGoldrick 0:33:08 F 20-24 F 9 80.03
271 Greg Wilcock 0:33:08 M Open M 9 82.68
272 Glenn Follent 0:33:09 M 40-44 M 28 82.67
273 Don Cotterill 0:33:09 M 40-44 M 29 82.67
275 Bob McCoid 0:33:09 M 60-64 M 8 82.66
274 Robert Chisholm 0:33:09 M 30-34 M 20 82.66
276 Rita Barrett 0:33:09 F 40-44 F 8 80.00
277 Adam Mitchell 0:33:10 M 30-34 M 21 82.62
278 Darren Sassall 0:33:11 M 35-39 M 21 82.61
279 Anthony Johnson 0:33:12 M 50-54 M 25 82.58
280 Michael Gooley 0:33:13 M 50-54 M 26 82.55
281 Penny Main 0:33:15 F 40-44 F 9 79.82
282 Suzanne Carson 0:33:15 F 35-39 F 9 79.82
283 Ric Deverell 0:33:16 M 35-39 M 22 82.47
284 Damon Moloney 0:33:17 M 40-44 M 30 82.46
285 Mark Eaves 0:33:18 M 50-54 M 27 82.42
286 Dan O'Sullivan 0:33:18 M 35-39 M 23 82.41
287 Tyrone McGillick 0:33:20 M 30-34 M 22 82.36
288 Diane Fry 0:33:22 F 40-44 F 10 79.60
289 Peter Comben 0:33:22 M 50-54 M 28 82.33
291 Ross Logan 0:33:22 M 50-54 M 29 82.32
290 Daniel Brown 0:33:22 M 30-34 M 23 82.32
292 Brydie Warren 0:33:22 F 12-15 F 15 79.59
293 Peter Burge-Lopez 0:33:24 M 55-59 M 13 82.26
295 Annie Brealey 0:33:24 F 40-44 F 11 79.53
294 Ian Lynch 0:33:24 M 50-54 M 30 82.26
296 Ian Jones 0:33:26 M 45-49 M 38 82.22
297 David Colquitt 0:33:26 M 25-29 M 16 82.21
298 Greg Mutton 0:33:28 M 50-54 M 31 82.17
299 Craig Banks 0:33:29 M 35-39 M 24 82.13
300 Gary Russell 0:33:30 M 35-39 M 25 82.12
301 Marty Filipowski 0:33:30 M 40-44 M 31 82.12
302 Neil Clayton 0:33:30 M 50-54 M 32 82.12
303 Mark Fritsch 0:33:30 M 25-29 M 17 82.11
304 Corina Presser 0:33:32 F 35-39 F 10 79.27
305 Al MacTier 0:33:34 M 35-39 M 26 82.02
306 Martin Stock 0:33:34 M 35-39 M 27 82.01
307 Brooke Irvine 0:33:34 F 25-29 F 12 79.20
308 Jake Magri 0:33:36 M 12-15 M 14 81.96
309 Natasha Morton 0:33:38 F 25-29 F 13 79.09
310 Matthew Bevan 0:33:39 M 30-34 M 24 81.87
311 Raymond Tolland 0:33:41 M 45-49 M 39 81.82
312 Karen Moores 0:33:44 F 40-44 F 12 78.91
313 David Field 0:33:45 M 45-49 M 40 81.73
314 Neville John de Mestre 0:33:46 M 65-69 M 3 81.71
315 John Gilmour 0:33:46 M 35-39 M 28 81.69
316 John Thomson 0:33:47 M 30-34 M 25 81.68
317 Tania Lewis 0:33:47 F 30-34 F 8 78.80
318 Mark Jones 0:33:49 M 45-49 M 41 81.63
319 Matthew Jones 0:33:49 M 12-15 M 15 81.61
320 Michael Schwager 0:33:49 M 40-44 M 32 81.61
321 Bruce Mourney 0:33:51 M 40-44 M 33 81.57
322 Brett Stuart 0:33:51 M 40-44 M 34 81.57
323 Kevin Gottstein 0:33:52 M 45-49 M 42 81.54
324 Jack Wilshaw 0:33:53 M 25-29 M 18 81.52
325 Darrell Irwin 0:33:54 M 40-44 M 35 81.50
326 David Boutkan 0:33:55 M 40-44 M 36 81.46
327 Bob Brown 0:33:56 M 50-54 M 33 81.43
328 Robert Simon 0:33:58 M 40-44 M 37 81.37
329 Margaret Simpson-Lee 0:33:59 F 35-39 F 11 78.43
330 Laurence Ryan 0:34:00 M 40-44 M 38 81.33
331 Shane Sterry 0:34:01 M 35-39 M 29 81.30
332 Shaunagh Cassidy 0:34:02 F 40-44 F 13 78.34
333 Craig White 0:34:03 M 55-59 M 14 81.27
334 Heidi Sowerby 0:34:03 F 30-34 F 9 78.32
335 Alan Rowe 0:34:03 M 55-59 M 15 81.26
336 Suanne Hunt 0:34:03 F 50-54 F 3 78.31
337 Claudia Crause 0:34:03 F 12-15 F 16 78.30
338 John Lewis 0:34:05 M 35-39 M 30 81.20
339 Clarissa Rayward 0:34:05 F 25-29 F 14 78.25
340 Paul Foster 0:34:06 M 45-49 M 43 81.18
341 Sue McNamara 0:34:08 F 45-49 F 5 78.14
342 Leigh Betts 0:34:09 M 55-59 M 16 81.11
343 Tom Marris 0:34:09 M 50-54 M 34 81.10
344 Genevieve Hudson 0:34:09 F 35-39 F 12 78.13
345 Austin McMahon 0:34:09 M 45-49 M 44 81.10
346 Simon Thorn 0:34:09 M 60-64 M 9 81.10
347 Sarah McGahan 0:34:10 F 40-44 F 14 78.08
348 Greg Stebbing 0:34:11 M 55-59 M 17 81.04
349 Dean Gannon 0:34:11 M 12-15 M 16 81.04
350 Michael King 0:34:12 M 40-44 M 39 81.03
351 Col Gane 0:34:12 M 40-44 M 40 81.03
352 Karen Rash 0:34:12 F 35-39 F 13 78.02
353 Chris King 0:34:13 M 35-39 M 31 81.00
354 Tim Sharman 0:34:14 M 20-24 M 4 80.98
355 Shane Bamkin 0:34:14 M 35-39 M 32 80.97
356 Andrew Child 0:34:15 M 45-49 M 45 80.94
357 Adrian Megaw 0:34:15 M 35-39 M 33 80.93
358 Col Dutton 0:34:16 M 40-44 M 41 80.93
359 Patrick Knight 0:34:16 M 55-59 M 18 80.92
360 Gavin Stringfellow 0:34:17 M 35-39 M 34 80.90
361 Ross MacDowell 0:34:17 M 45-49 M 46 80.89
362 Rick Barraclough 0:34:19 M 55-59 M 19 80.85
363 Peter Griffith 0:34:19 M 40-44 M 42 80.85
365 Bill Phillips 0:34:19 M 60-64 M 10 80.83
364 Jordan Buckley 0:34:19 M 12-15 M 17 80.83
366 Kevin Tickle 0:34:23 M 50-54 M 35 80.72
367 Greg West 0:34:24 M 55-59 M 20 80.72
368 Mark Redmond 0:34:26 M 45-49 M 47 80.65
369 Sidney Allen 0:34:27 M 60-64 M 11 80.63
370 Catherine Conway 0:34:27 F 40-44 F 15 77.55
371 Jonathan Walker 0:34:28 M 40-44 M 43 80.62
372 Paul Thornton 0:34:28 M 45-49 M 48 80.60
373 Chris Tyson 0:34:29 M 35-39 M 35 80.59
375 Jan Taylor 0:34:29 F 50-54 F 4 77.51
374 Lee O'Brien 0:34:29 F 25-29 F 15 77.51
376 Frank Soltau 0:34:29 M 50-54 M 36 80.57
377 Robert Warren 0:34:30 M 40-44 M 44 80.56
378 Nick Dargan 0:34:30 M 40-44 M 45 80.56
379 Robert Brasher 0:34:32 M 40-44 M 46 80.50
381 Kieren Boyd 0:34:32 M 25-29 M 19 80.50
380 Phillip Treloar 0:34:32 M 55-59 M 21 80.50
382 Kim Drysdale 0:34:32 M 45-49 M 49 80.49
383 Steven Taylor 0:34:33 M 40-44 M 47 80.49
384 Denise Elder 0:34:34 F 55-59 F 1 77.36
385 David Griffin 0:34:34 M 45-49 M 50 80.45
386 Michelle Edwards 0:34:34 F 35-39 F 14 77.35
387 Tony Camilleri 0:34:37 M 35-39 M 36 80.36
388 Jim Boyd 0:34:39 M 50-54 M 37 80.31
389 Julie Trembath 0:34:40 F 45-49 F 6 77.15
390 Clifford Posner 0:34:40 M 45-49 M 51 80.28
391 Guy Irwin 0:34:42 M 55-59 M 22 80.25
392 Raz Burtonwood 0:34:42 M 55-59 M 23 80.25
393 Rex Whiticker 0:34:43 M 12-15 M 18 80.22
394 Tim Roberts-Thomson 0:34:45 M 45-49 M 52 80.17
395 Peter Dawson 0:34:45 M 45-49 M 53 80.16
396 Kath Egan 0:34:45 F 50-54 F 5 76.99
397 Michael Burmeister 0:34:47 M 25-29 M 20 80.12
398 Philip Mallam 0:34:47 M 35-39 M 37 80.12
399 Ross Walker 0:34:48 M 45-49 M 54 80.09
400 Tim Harris 0:34:48 M 45-49 M 55 80.08
401 Rebecca Levis 0:34:49 F 30-34 F 10 76.88
402 Cheryl Crowe 0:34:49 F 45-49 F 7 76.87
403 Peter Atkins 0:34:51 M 50-54 M 38 80.01
404 Elizabeth Bates 0:34:53 F 55-59 F 2 76.77
405 Pete Thomas 0:34:53 M 45-49 M 56 79.96
406 Kate Bailey 0:34:53 F 20-24 F 10 76.74
407 Paul Tsikleas 0:34:54 M 45-49 M 57 79.93
408 Allan Coker 0:34:54 M 55-59 M 24 79.92
409 Warren King 0:34:55 M 35-39 M 38 79.91
410 Craig King 0:34:56 M 35-39 M 39 79.88
411 Karen van Sacker 0:34:56 F 45-49 F 8 76.66
412 Aaron Johnstone 0:34:57 M 30-34 M 26 79.87
413 Joseph McDermott 0:34:57 M 16-19 M 9 79.85
415 Ian Murdoch 0:34:57 M 50-54 M 39 79.84
414 Coleen O'Neill 0:34:57 F 50-54 F 6 76.62
416 Joanne Wynn 0:34:57 F 45-49 F 9 76.61
417 Pam Gunn 0:34:59 F 50-54 F 7 76.56
418 Lucille Reynolds 0:34:59 F 45-49 F 10 76.55
419 Barbara Shaw 0:35:00 F 50-54 F 8 76.53
420 Greg Pile 0:35:02 M 55-59 M 25 79.73
421 Damien Jones 0:35:03 M 20-24 M 5 79.70
422 Alison Fahlbusch 0:35:03 F 30-34 F 11 76.43
423 Christopher Harrison 0:35:04 M 45-49 M 58 79.68
424 Michael Herrmann 0:35:05 M 50-54 M 40 79.63
425 Angus Harris 0:35:07 M 25-29 M 21 79.59
426 Scott Crawford 0:35:08 M 60-64 M 12 79.58
427 Joanne Scott-Young 0:35:08 F 35-39 F 15 76.28
428 Andrew Venning 0:35:08 M 50-54 M 41 79.56
429 Sue Jackson 0:35:10 F 35-39 F 16 76.21
430 Gregory Flynn 0:35:11 M 45-49 M 59 79.50
431 Penny Hall 0:35:11 F 50-54 F 9 76.20
432 Sue Margetts 0:35:12 F 45-49 F 11 76.16
433 Marian Trenerry 0:35:13 F 40-44 F 16 76.11
434 David Lean 0:35:13 M 35-39 M 40 79.43
435 Tony Frost 0:35:14 M 60-64 M 13 79.41
436 Angela Waite 0:35:16 F 45-49 F 12 76.03
437 Craig Moran 0:35:16 M 40-44 M 48 79.35
438 Tim van Leeuwen 0:35:18 M 50-54 M 42 79.31
439 David Custer 0:35:18 M 35-39 M 41 79.30
440 Craig Gilmore 0:35:18 M 30-34 M 27 79.30
441 David Elsbury 0:35:18 M 45-49 M 60 79.30
442 Will Jacobsen 0:35:19 M 12-15 M 19 79.28
443 Terry Crowe 0:35:19 M 50-54 M 43 79.27
445 Mark Ingram 0:35:20 M 40-44 M 49 79.25
444 Greg McLachlan 0:35:20 M 50-54 M 44 79.25
446 Kerry Seibold 0:35:23 M 55-59 M 26 79.17
447 Martin Wright 0:35:24 M 45-49 M 61 79.16
449 Graeme Farrell 0:35:24 M 65-69 M 4 79.16
448 Clare Freeman 0:35:24 F 30-34 F 12 75.79
451 Rick Le Cornu 0:35:25 M 45-49 M 62 79.14
450 Wallace Smith 0:35:25 M 55-59 M 27 79.14
452 Brad Richardson 0:35:25 M 35-39 M 42 79.13
453 Ian Baird 0:35:27 M 55-59 M 28 79.08
454 Patrick Todhunter 0:35:29 M 50-54 M 45 79.01
455 John Duggin 0:35:30 M 60-64 M 14 79.00
456 Sean Radburn 0:35:31 M 30-34 M 28 78.96
457 John Sheffield 0:35:34 M 50-54 M 46 78.88
458 Steve Soden 0:35:35 M 35-39 M 43 78.87
459 Alexander Horn 0:35:36 M 20-24 M 6 78.85
460 John Masters 0:35:37 M 55-59 M 29 78.82
461 Peter O'Neill 0:35:38 M 50-54 M 47 78.79
462 Brian Dreger 0:35:39 M 50-54 M 48 78.78
463 James Crook 0:35:39 M 30-34 M 29 78.77
464 David Flannery 0:35:42 M 35-39 M 44 78.69
465 Con Duyvestyn 0:35:42 M 60-64 M 15 78.68
466 Rayner Sturton 0:35:44 M 50-54 M 49 78.64
467 Juliet Spencer 0:35:45 F 40-44 F 17 75.13
468 Yuta Jones 0:35:46 M 12-15 M 20 78.59
469 Stephen Robson 0:35:46 M 35-39 M 45 78.58
470 Peter Prince 0:35:48 M 55-59 M 30 78.54
471 Dana Sawyer 0:35:48 F 35-39 F 17 75.03
472 Lynette Coutts 0:35:49 F 45-49 F 13 74.99
473 Roberta O'Brien 0:35:53 F 35-39 F 18 74.89
474 Ian Smout 0:35:53 M 50-54 M 50 78.41
475 Elly Fleig 0:35:53 F 60-64 F 2 74.87
476 Rowan Ward 0:35:54 M 50-54 M 51 78.38
477 Stephen Dennis 0:35:55 M 50-54 M 52 78.35
478 Brian Hall 0:35:56 M 55-59 M 31 78.32
479 Jon Stephenson 0:35:57 M 50-54 M 53 78.29
480 Tom Stockman 0:35:58 M 30-34 M 30 78.28
481 Lynne Borchert 0:35:59 F 50-54 F 10 74.70
482 Tom Lockwood 0:36:00 M 50-54 M 54 78.21
483 Natalie Lincoln 0:36:01 F 30-34 F 13 74.63
484 Robert Virgona 0:36:03 M 60-64 M 16 78.14
485 Mark Edwards 0:36:04 M 45-49 M 63 78.10
486 Peter Dodd 0:36:05 M 35-39 M 46 78.08
487 Kerry Spencer 0:36:07 M 50-54 M 55 78.04
488 Kieran Kelly 0:36:07 M 50-54 M 56 78.03
489 Sarah Carless 0:36:11 F 30-34 F 14 74.30
490 David McGill 0:36:12 M 20-24 M 7 77.90
491 Craig Kelly 0:36:13 M 40-44 M 50 77.88
492 Peta Medhurst 0:36:13 F 40-44 F 18 74.24
493 Mark Buhagiar 0:36:14 M 40-44 M 51 77.85
494 Zvi Hochman 0:36:15 M 50-54 M 57 77.84
495 Stephen Eakin 0:36:16 M 35-39 M 47 77.80
496 Francis Horacek 0:36:16 M 40-44 M 52 77.79
497 Duncan Andrew 0:36:17 M 40-44 M 53 77.78
498 Paul Hoy 0:36:17 M 45-49 M 64 77.77
499 John Havilah 0:36:18 M 65-69 M 5 77.76
500 Michelle Sbrugnera 0:36:18 F 30-34 F 15 74.08
501 Mark-Barney Mounsey 0:36:19 M 40-44 M 54 77.73
503 Kate Masters 0:36:19 F 20-24 F 11 74.07
502 Brian Mitchell 0:36:19 M 40-44 M 55 77.73
504 Nicky Sandon 0:36:19 F 30-34 F 16 74.06
505 Wayne Phillip Johnson 0:36:19 M 55-59 M 32 77.72
506 Nigel Sisson 0:36:20 M 50-54 M 58 77.69
507 Laurie Bellett 0:36:23 M 45-49 M 65 77.63
509 Allison Jones 0:36:25 F 45-49 F 14 73.86
508 Joanne Arthur 0:36:25 F 35-39 F 19 73.86
510 Greg McGahan 0:36:27 M 35-39 M 48 77.53
511 Jennifer Hole 0:36:28 F 55-59 F 3 73.77
512 Mark Taylor 0:36:30 M 45-49 M 66 77.45
513 Ian Hayes 0:36:31 M 50-54 M 59 77.41
514 Ian McKay 0:36:32 M 35-39 M 49 77.39
515 Barbara Gruber 0:36:34 F 55-59 F 4 73.59
516 John Warren 0:36:35 M 50-54 M 60 77.31
517 Shaun Phelan 0:36:36 M 30-34 M 31 77.29
518 Katrina Sinclair 0:36:36 F 50-54 F 11 73.53
519 Tony Dunn 0:36:36 M 70-74 M 1 77.27
520 Malcolm Kofsky 0:36:37 M 45-49 M 67 77.25
521 Lib Ruytenberg 0:36:38 F 55-59 F 5 73.48
522 Kerry Savige 0:36:38 M 55-59 M 33 77.22
523 Libby Thomas 0:36:39 F 40-44 F 19 73.45
524 Steven Ivanhoe 0:36:40 M 35-39 M 50 77.18
525 Virginia Hallam 0:36:42 F 30-34 F 17 73.35
527 Graham Chapman 0:36:43 M 50-54 M 61 77.11
526 Christopher Alexander 0:36:43 M 40-44 M 56 77.11
528 Joel Cunningham 0:36:43 M 25-29 M 22 77.10
529 Shane Laker 0:36:44 M 45-49 M 68 77.07
530 Thomas Wilmot 0:36:45 M 60-64 M 17 77.05
531 Tom Holt 0:36:45 M 20-24 M 8 77.04
532 Mark Carron 0:36:46 M 45-49 M 69 77.02
533 Samantha Cooper 0:36:47 F 25-29 F 16 73.19
534 Stuart Tarrant 0:36:47 M 40-44 M 57 76.99
535 Mal Cummack 0:36:48 M 50-54 M 62 76.98
536 Stephen Connors 0:36:48 M 30-34 M 32 76.98
537 Kate Daley 0:36:49 F 45-49 F 15 73.14
539 Graham Truswell 0:36:49 M 45-49 M 71 76.95
538 Garry Simes 0:36:49 M 45-49 M 70 76.95
540 Paul Chapman 0:36:49 M 45-49 M 72 76.94
541 Louise Weir 0:36:50 F 40-44 F 20 73.09
542 Julian Lymburger 0:36:52 M 60-64 M 18 76.88
543 John Clifford 0:36:52 M 35-39 M 51 76.87
544 Sim Hess 0:36:52 F 25-29 F 17 73.03
545 Greg Brennan 0:36:52 M 45-49 M 73 76.86
546 Anthony McCappin 0:36:52 M 40-44 M 58 76.86
547 Megan Coffey 0:36:53 F 35-39 F 20 73.01
548 Tim Hassey 0:36:53 M 35-39 M 52 76.83
549 Fiona-Janne Longworth 0:36:54 F 40-44 F 21 72.99
550 Philip Venables 0:36:55 M 50-54 M 63 76.80
551 Terry Seymour 0:36:57 M 55-59 M 34 76.75
552 Greg Broome 0:37:02 M 50-54 M 64 76.60
553 Julia Fung 0:37:03 F 30-34 F 18 72.69
554 Alex Scott 0:37:04 M 30-34 M 33 76.57
555 Robert Kenneth Coulson 0:37:04 M 45-49 M 74 76.55
556 Carolyn Young 0:37:05 F 55-59 F 6 72.63
557 Geoff Parry 0:37:05 M 35-39 M 53 76.53
558 Anthony Rous 0:37:06 M 35-39 M 54 76.51
559 Kim Preston 0:37:06 F 50-54 F 12 72.59
560 Paula Johnston 0:37:09 F 30-34 F 19 72.49
561 Peter Bennett 0:37:10 M 55-59 M 35 76.40
562 Tommy Nolan 0:37:12 M 50-54 M 65 76.35
563 Jane Murphy 0:37:14 F 40-44 F 22 72.35
564 Damian McCann 0:37:14 M 30-34 M 34 76.30
565 Julie Kennedy 0:37:19 F 50-54 F 13 72.20
566 Ridgey Didge 0:37:21 M 40-44 M 59 76.12
567 Chris Ward 0:37:21 M 40-44 M 60 76.11
569 Graham Mailander 0:37:22 M 55-59 M 36 76.09
568 Anna Pozzi 0:37:22 F 35-39 F 21 72.09
571 Helen Gream 0:37:23 F 35-39 F 22 72.06
570 Caroline Jordan 0:37:23 F 40-44 F 23 72.06
572 Warren Ferguson 0:37:26 M 30-34 M 35 75.98
573 Meisha Donnellan 0:37:26 F 12-15 F 17 71.96
574 James Bridgman 0:37:29 M 50-54 M 66 75.92
575 Dunstan Thompson 0:37:29 M 35-39 M 55 75.90
576 Anthony McQuillen 0:37:30 M 55-59 M 37 75.89
577 Max Wasley 0:37:30 M 12-15 M 21 75.89
578 Nick Spencer 0:37:30 M 40-44 M 61 75.88
579 Chris Burdekin 0:37:32 M 50-54 M 67 75.82
580 Bruce Towner 0:37:34 M 45-49 M 75 75.79
581 Dom Howard 0:37:35 M 40-44 M 62 75.76
582 Greg Robertson 0:37:35 M 45-49 M 76 75.75
583 Rhett Sampson 0:37:35 M 45-49 M 77 75.75
584 Richard Coyne 0:37:35 M 40-44 M 63 75.74
585 George Graham 0:37:36 M 50-54 M 68 75.73
586 Grace Vining 0:37:36 F 16-19 F 9 71.65
587 Tim Sweeney 0:37:36 M 40-44 M 64 75.72
588 Graeme Taylor 0:37:38 M 60-64 M 19 75.68
589 Marianne McGrane 0:37:40 F 45-49 F 16 71.54
590 Stephanie Lymburger 0:37:40 F 60-64 F 3 71.53
591 Nicole Bryant 0:37:40 F 30-34 F 20 71.52
593 Ruth Gotterson 0:37:43 F 40-44 F 24 71.44
592 Geraldine Hunt 0:37:43 F 45-49 F 17 71.44
594 Stephen Hepworth 0:37:44 M 45-49 M 78 75.51
595 David Alexander 0:37:44 M 45-49 M 79 75.51
596 Gillian Hawkins 0:37:45 F 40-44 F 25 71.39
597 Rowan Waterhouse 0:37:45 M 45-49 M 80 75.48
598 Brannan Lucas 0:37:46 M 30-34 M 36 75.48
599 Salina Levett 0:37:46 F 20-24 F 12 71.36
600 Nikki Webb 0:37:46 F 40-44 F 26 71.35
601 John Mader 0:37:46 M 60-64 M 20 75.46
602 Paul Burns 0:37:46 M 50-54 M 69 75.46
603 Ross Baines 0:37:47 M 40-44 M 65 75.45
604 John Franks 0:37:49 M 55-59 M 38 75.38
605 Lyn Watson 0:37:51 F 55-59 F 7 71.18
606 Claire Keane 0:37:52 F 45-49 F 18 71.15
607 Pascale Pollak 0:37:53 M 35-39 M 56 75.29
608 Simon Dobson 0:37:54 M 40-44 M 66 75.27
609 Judith Grant 0:37:54 F 40-44 F 27 71.09
610 Bernard Starfield 0:37:54 M 45-49 M 81 75.25
611 Maree Yong 0:37:55 F 25-29 F 18 71.08
612 Teegan McGrath 0:37:58 F 12-15 F 18 70.96
613 Richard Harvey 0:38:00 M 55-59 M 39 75.11
614 Richard Palmer 0:38:01 M 45-49 M 82 75.07
615 Stephen Doyle 0:38:02 M 50-54 M 70 75.05
616 Terry Parker 0:38:02 M 50-54 M 71 75.04
617 Heath Gilmore 0:38:03 M 35-39 M 57 75.04
618 Brian Fox 0:38:03 M 50-54 M 72 75.04
619 Jan Davies 0:38:03 F 50-54 F 14 70.81
621 Laurel Howard 0:38:04 F 35-39 F 23 70.80
622 Venessa Waser 0:38:05 F 40-44 F 28 70.76
623 Karen Sharp 0:38:05 F 35-39 F 24 70.74
624 Mark Roufeil 0:38:05 M 40-44 M 67 74.96
625 Mark Hall 0:38:06 M 45-49 M 83 74.94
626 Peter Robinson 0:38:07 M 55-59 M 40 74.91
627 Denise Cooper 0:38:08 F 45-49 F 19 70.66
628 Brian McInnes 0:38:09 M 50-54 M 73 74.86
629 Rob Buckland 0:38:10 M 50-54 M 74 74.84
630 David Port 0:38:11 M 50-54 M 75 74.83
631 Donna Noye 0:38:12 F 50-54 F 15 70.55
632 Casey Brennan 0:38:12 F 16-19 F 10 70.53
633 Michael Saville 0:38:13 M 40-44 M 68 74.77
634 Michael Robinson 0:38:13 M 50-54 M 76 74.75
635 Greg Gooley 0:38:14 M 40-44 M 69 74.74
636 David Lane 0:38:14 M 45-49 M 84 74.74
637 Warren Stanborough 0:38:14 M 55-59 M 41 74.74
638 Tom Trembath 0:38:16 M 50-54 M 77 74.70
639 Michael Martin 0:38:16 M 50-54 M 78 74.68
640 Samantha Kennedy 0:38:18 F 30-34 F 21 70.34
641 Justin Watson 0:38:19 M 35-39 M 58 74.60
642 Walter Noble 0:38:20 M 60-64 M 21 74.60
643 Steven Bennetts 0:38:20 M 30-34 M 37 74.58
644 Anthony Acret 0:38:21 M 35-39 M 59 74.56
645 Adam Morton 0:38:22 M 40-44 M 70 74.53
646 Jamie Osborn 0:38:23 M 30-34 M 38 74.51
647 Lex Frazer 0:38:25 M 40-44 M 71 74.46
648 Jeanette Ashton 0:38:27 F 60-64 F 4 70.07
649 Tim Sedgman 0:38:27 M 20-24 M 9 74.40
650 Cesar Puertolas 0:38:28 M 50-54 M 79 74.37
651 Theresa Crause 0:38:29 F 50-54 F 16 70.01
652 James Spark 0:38:31 M 45-49 M 85 74.29
653 Roy Swan 0:38:32 M 65-69 M 6 74.29
654 Jill Allen 0:38:32 F 55-59 F 8 69.91
655 David Robinson 0:38:32 M 55-59 M 42 74.26
656 Andrew Wilson 0:38:33 M 40-44 M 72 74.25
657 Jacqueline Bourn 0:38:33 F 45-49 F 20 69.87
658 Denis Bendall 0:38:34 M 45-49 M 86 74.23
659 Matty Marshall 0:38:34 M 30-34 M 39 74.23
660 Lauren Elder 0:38:34 F 20-24 F 13 69.85
661 Ian Ritchie 0:38:35 M 55-59 M 43 74.19
663 Neil McKenzie 0:38:36 M 50-54 M 80 74.18
662 Belinda Lorking-Tanner 0:38:36 F 40-44 F 29 69.80
664 David Bachmayer 0:38:36 M 50-54 M 81 74.17
665 Graham Boyd 0:38:37 M 50-54 M 82 74.15
666 Peter John Phillips 0:38:37 M 50-54 M 83 74.15
667 Brett Larkin 0:38:38 M 45-49 M 87 74.13
668 Rhian McCormack 0:38:38 F 25-29 F 19 69.73
669 David Roland 0:38:38 M 45-49 M 88 74.11
670 Michael Munro 0:38:39 M 50-54 M 84 74.09
671 Ludmila Suba 0:38:41 F 45-49 F 21 69.63
672 Leah Grant-Frost 0:38:42 F 25-29 F 20 69.59
673 Matilda Donnellan 0:38:42 F 12-15 F 19 69.59
674 Simon Clark 0:38:44 M 35-39 M 60 73.97
675 Sam Stewart 0:38:45 M 40-44 M 73 73.94
676 Caitlin Innis 0:38:45 F 12-15 F 20 69.50
677 Ainsley Balke 0:38:46 F 30-34 F 22 69.47
678 Sue Griffin 0:38:46 F 55-59 F 9 69.46
679 Taryne Jay 0:38:47 F 25-29 F 21 69.46
680 Garry Beresford 0:38:47 M 70-74 M 2 73.89
681 Andrew Clarke 0:38:48 M 45-49 M 89 73.86
682 Ken Porter 0:38:49 M 60-64 M 22 73.84
683 Natalie Brien 0:38:49 F 35-39 F 25 69.37
684 Sallyanne McMahon 0:38:49 F 35-39 F 26 69.37
685 Robert White 0:38:51 M 50-54 M 85 73.78
686 John Gillett 0:38:51 M 50-54 M 86 73.77
687 Margot Warre 0:38:52 F 30-34 F 23 69.29
688 Gary White 0:38:53 M 40-44 M 74 73.72
689 Doug Grace 0:38:55 M 50-54 M 87 73.68
690 Vikki Stenlake 0:38:56 F 40-44 F 30 69.17
691 Robert Siebert 0:38:56 M 50-54 M 88 73.64
692 Sue Chennell 0:38:57 F 30-34 F 24 69.14
693 Martin Smith 0:39:00 M 35-39 M 61 73.54
694 Sarah Hulme 0:39:01 F 30-34 F 25 69.02
695 Denise Robertson 0:39:01 F 70-74 F 1 69.00
696 Tina McEvoy 0:39:02 F 40-44 F 31 68.98
697 Gerard Collins 0:39:03 M 55-59 M 44 73.47
698 Kasey Pitt 0:39:03 F 20-24 F 14 68.94
699 Stuart Thomas 0:39:03 M 35-39 M 62 73.46
700 Garry Palmer 0:39:06 M 50-54 M 89 73.39
701 Simon Worboys 0:39:07 M 35-39 M 63 73.37
703 Robert Lees 0:39:07 M 40-44 M 75 73.37
702 Alec Watson 0:39:07 M 55-59 M 45 73.37
704 Loretta Smith 0:39:07 F 40-44 F 32 68.82
705 Mandy Templeman 0:39:07 F 40-44 F 33 68.81
706 Michael Johnson 0:39:08 M 50-54 M 90 73.35
707 Peter Imerson 0:39:10 M 50-54 M 91 73.29
708 Jack Stening 0:39:10 M 60-64 M 23 73.28
709 Jody Armstrong 0:39:11 F 40-44 F 34 68.69
710 Susan Cooper 0:39:12 F 30-34 F 26 68.66
711 Jacinta Weir 0:39:12 F 35-39 F 27 68.65
712 Andrew Eddy 0:39:14 M 25-29 M 23 73.19
713 Paul Bisson 0:39:14 M 40-44 M 76 73.19
714 Anthony Nesich 0:39:14 M 45-49 M 90 73.18
715 Michael Alvisse 0:39:14 M 30-34 M 40 73.17
716 Phillip McMahon 0:39:15 M 55-59 M 46 73.16
717 John Ware 0:39:15 M 35-39 M 64 73.15
718 James Kerrison 0:39:16 M 35-39 M 65 73.14
719 Sally McCutcheon 0:39:16 F 35-39 F 28 68.53
720 Bill MacRow 0:39:19 M 50-54 M 92 73.06
721 Sarah Holloway 0:39:19 F 30-34 F 27 68.43
722 Michael Hewitt 0:39:20 M 60-64 M 24 73.02
723 Jonathon Priestley 0:39:22 M 40-44 M 77 72.96
724 Benjamin Serrano 0:39:24 M 25-29 M 24 72.92
725 Brett Beutel 0:39:26 M 30-34 M 41 72.88
726 Robert Mansberg 0:39:26 M 45-49 M 91 72.87
727 Louise Capling 0:39:27 F 30-34 F 28 68.19
728 David Nadin 0:39:28 M 45-49 M 92 72.82
729 Philip Kennedy 0:39:30 M 45-49 M 93 72.77
730 Jeannette Lloyd Jones 0:39:31 F 55-59 F 10 68.07
731 Emma Gorman 0:39:32 F 25-29 F 22 68.05
732 John McDonnell 0:39:35 M 50-54 M 93 72.64
733 Robert Watson 0:39:37 M 55-59 M 47 72.59
734 George Palmer 0:39:38 M 35-39 M 66 72.56
735 Jane Munro 0:39:39 F 30-34 F 29 67.81
736 Alison Watt 0:39:41 F 35-39 F 29 67.75
737 John McCaffery 0:39:41 M 50-54 M 94 72.47
738 Kent Wells 0:39:43 M 50-54 M 95 72.44
739 Ray Adams 0:39:44 M 55-59 M 48 72.40
740 Tristan Harris 0:39:45 M 30-34 M 42 72.37
741 Peter Mitchell 0:39:47 M 55-59 M 49 72.33
742 Mat Witham 0:39:48 M 35-39 M 67 72.30
743 Steve Cribbin 0:39:51 M 35-39 M 68 72.22
744 Garth Donkin 0:39:52 M 25-29 M 25 72.19
745 Neil McDowell 0:39:54 M 50-54 M 96 72.14
746 Rodney Greensill 0:39:55 M 55-59 M 50 72.12
747 Lee Anne Stewart 0:39:56 F 45-49 F 22 67.29
748 Mick Anglberger 0:39:56 M 40-44 M 78 72.09
749 Robert Fahey 0:39:57 M 45-49 M 94 72.07
750 Brian Donnellan 0:39:58 M 50-54 M 97 72.05
751 Rick Turner 0:39:58 M 45-49 M 95 72.04
752 Catherine Jones 0:39:58 F 55-59 F 11 67.22
753 Robyn McIntyre 0:39:59 F 55-59 F 12 67.19
754 Graham Reid 0:40:00 M 45-49 M 96 71.98
755 Matthew King 0:40:00 M 35-39 M 69 71.98
756 Greg Zobel 0:40:01 M 50-54 M 98 71.96
757 Gabrielle Murphy 0:40:02 F 40-44 F 35 67.09
758 Valerie Hoggett 0:40:04 F 55-59 F 13 67.04
759 Craig Herron 0:40:05 M 45-49 M 97 71.86
760 Stephen Brown 0:40:05 M 55-59 M 51 71.85
761 Ross Hansen 0:40:06 M 50-54 M 99 71.84
762 David Altoft 0:40:06 M 45-49 M 98 71.82
763 Gary Inger 0:40:07 M 50-54 M 100 71.81
764 Natasha Reddrop 0:40:07 F 30-34 F 30 66.93
765 Kate Goulding 0:40:07 F 20-24 F 15 66.93
766 John Munro 0:40:09 M 45-49 M 99 71.76
767 Peter Henderson 0:40:09 M 65-69 M 7 71.76
768 Renee Hinchcliffe 0:40:10 F 25-29 F 23 66.86
769 Robert Barr 0:40:11 M 60-64 M 25 71.71
770 Paul Boyd 0:40:13 M 30-34 M 43 71.66
771 Greg Yopp 0:40:13 M 45-49 M 100 71.65
772 Steven Saxton 0:40:14 M 55-59 M 52 71.63
773 Genesio Falcomer 0:40:16 M 40-44 M 79 71.57
774 Peter Ruthven 0:40:17 M 50-54 M 101 71.55
775 Peter Matthews 0:40:19 M 40-44 M 80 71.50
777 Ross McLennan 0:40:20 M 40-44 M 81 71.46
776 Shelley Spicer 0:40:20 F 40-44 F 36 66.53
779 Noel Nunan 0:40:20 M 50-54 M 102 71.46
778 Terry Carter 0:40:20 F 55-59 F 14 66.52
780 Keith Badger 0:40:21 M 50-54 M 103 71.44
781 Peter Court 0:40:21 M 55-59 M 53 71.43
782 Joanne Twaddell 0:40:22 F 30-34 F 31 66.48
783 Emily Reid 0:40:22 F 25-29 F 24 66.47
784 Richard Raine 0:40:22 M 40-44 M 82 71.41
785 Peter Homann 0:40:23 M 50-54 M 104 71.40
786 Wayne Hudgell 0:40:24 M 40-44 M 83 71.37
787 Jason Engel 0:40:24 M 16-19 M 10 71.36
788 Samuel Bickford 0:40:25 M 30-34 M 44 71.33
789 Victoria Brunninghausen 0:40:26 F 45-49 F 23 66.35
790 Catherine West 0:40:26 F 35-39 F 30 66.34
791 John Konrads 0:40:27 M 60-64 M 26 71.28
792 Tim Cooper 0:40:28 M 55-59 M 54 71.27
793 Gary McGoldrick 0:40:29 M 55-59 M 55 71.23
794 Barry O'Connell 0:40:29 M 55-59 M 56 71.23
795 Rachel McDermott 0:40:31 F 25-29 F 25 66.21
796 Karlos Gobius 0:40:31 M 20-24 M 10 71.19
797 Christian Harch 0:40:31 M 30-34 M 45 71.19
798 Tony Rath 0:40:32 M 35-39 M 70 71.15
799 Lise Carter 0:40:32 F 40-44 F 37 66.15
800 Anna Seymour 0:40:33 F 20-24 F 16 66.13
801 Jo King 0:40:34 F 35-39 F 31 66.09
802 Pamela Freeman 0:40:35 F 35-39 F 32 66.05
803 Daniel van Ofde 0:40:36 M 45-49 M 101 71.06
804 Mark Panitz 0:40:38 M 45-49 M 102 70.99
805 Gareth Jones 0:40:39 M 40-44 M 84 70.98
806 Stephen Trump 0:40:40 M 45-49 M 103 70.95
807 Elizabeth O'Hare 0:40:42 F 45-49 F 24 65.85
808 Matthew Doherty 0:40:42 M 20-24 M 11 70.89
809 Richard Hughes 0:40:43 M 35-39 M 71 70.87
810 John Gribble 0:40:43 M 50-54 M 105 70.86
811 Ian Neil 0:40:44 M 45-49 M 104 70.84
812 Michael Wright 0:40:45 M 35-39 M 72 70.83
813 Ross Bell 0:40:45 M 55-59 M 57 70.83
814 Richard Hultgren 0:40:46 M 55-59 M 58 70.79
815 Neil Sowerby 0:40:47 M 60-64 M 27 70.76
816 Russell Hannah 0:40:49 M 25-29 M 26 70.72
817 Jason Smith 0:40:49 M 55-59 M 59 70.71
818 Craig Leisher 0:40:50 M 40-44 M 85 70.70
819 Jasmine Condon 0:40:50 F 20-24 F 17 65.59
820 Jade Nelson-Chapman 0:40:51 F 12-15 F 21 65.57
821 Clive Condie 0:40:53 M 75Up M 1 70.63
822 Michelle Bourke 0:40:54 F 40-44 F 38 65.48
823 Martin Rose 0:40:55 M 40-44 M 86 70.56
824 John Tyson 0:40:57 M 35-39 M 73 70.51
825 Annette Lane 0:40:58 F 45-49 F 25 65.35
826 Denis Byrne 0:40:59 M 55-59 M 60 70.45
827 Joanne McIntosh 0:41:01 F 45-49 F 26 65.24
828 Mark Cribb 0:41:03 M 30-34 M 46 70.36
829 Michele McMillan 0:41:03 F 45-49 F 27 65.20
830 Rozanne Green 0:41:04 F 45-49 F 28 65.18
831 Michelle Tredoux 0:41:05 F 45-49 F 29 65.14
832 John Marshall 0:41:05 M 40-44 M 87 70.29
833 Philip Reichelt 0:41:06 M 35-39 M 74 70.29
834 Peter Currey 0:41:08 M 35-39 M 75 70.23
835 Virginia Head 0:41:08 F 60-64 F 5 65.03
836 Rex Neale 0:41:09 M 65-69 M 8 70.19
837 Benedict Loneragan 0:41:10 M 25-29 M 27 70.17
838 Paul Cambridge 0:41:10 M 50-54 M 106 70.17
839 Jacob Prinsloo 0:41:11 M 20-24 M 12 70.15
840 Josh Dardengo 0:41:11 M 12-15 M 22 70.14
841 Gabrielle Cullen 0:41:13 F 35-39 F 33 64.89
842 Rae Wills 0:41:13 F 50-54 F 17 64.87
843 Ronald Keller 0:41:15 M 45-49 M 105 70.05
844 Catherine Sky 0:41:16 F 35-39 F 34 64.79
845 Chris Power 0:41:18 M 55-59 M 61 69.98
846 Michael Curtis 0:41:18 M 40-44 M 88 69.96
847 Noel Richardson 0:41:22 M 60-64 M 28 69.85
848 Belinda Abel 0:41:25 F 50-54 F 18 64.51
849 Roslyn Earthrowl 0:41:27 F 50-54 F 19 64.44
850 Martin McEniery 0:41:30 M 40-44 M 89 69.65
851 Belinda Seaton 0:41:32 F 45-49 F 30 64.29
852 Jeff Toering 0:41:36 M 40-44 M 90 69.49
853 Peter Purcell 0:41:36 M 60-64 M 29 69.49
854 Scott Garrett 0:41:43 M 30-34 M 47 69.33
855 Leone Hunter 0:41:44 F 40-44 F 39 63.91
856 Neil Cunneen 0:41:44 M 45-49 M 106 69.29
857 Vivenne Donkin 0:41:45 F 50-54 F 20 63.89
858 Mark Tuckey 0:41:45 M 40-44 M 91 69.27
859 Sue Mason-Cox 0:41:46 F 55-59 F 15 63.84
860 Judi Buckley 0:41:47 F 45-49 F 31 63.82
861 John Rose 0:41:48 M 35-39 M 76 69.19
862 Janet Reid 0:41:48 F 45-49 F 32 63.78
863 David O'Connor 0:41:49 M 30-34 M 48 69.16
864 Frances Malone 0:41:51 F 25-29 F 26 63.70
865 Chris Doe 0:41:52 M 50-54 M 107 69.09
866 Amanda Stower 0:41:56 F 45-49 F 33 63.52
867 Tracy Spencer 0:41:59 F 45-49 F 34 63.45
868 Ans Meerleveld 0:42:01 F 50-54 F 21 63.39
869 Dagmar Parnell 0:42:02 M 25-29 M 28 68.81
870 Kathryn Daniels 0:42:05 F 40-44 F 40 63.27
871 Richard Hennes 0:42:05 M 55-59 M 62 68.75
872 Sheona Wood 0:42:07 F 40-44 F 41 63.20
873 Stephen Humphrys 0:42:08 M 45-49 M 107 68.67
874 Paul Bowden 0:42:10 M 30-34 M 49 68.61
875 Rachael Hanna 0:42:10 F 30-34 F 32 63.09
876 Warren Newton 0:42:11 M 35-39 M 77 68.59
877 Jade Couquaux 0:42:14 F 30-34 F 33 62.98
878 Chris Dayman 0:42:15 F 60-64 F 6 62.95
879 Gregory Lindores 0:42:16 M 45-49 M 108 68.47
880 Theresa Jacobson 0:42:17 F 45-49 F 35 62.88
881 Andrew Kilner 0:42:18 M 40-44 M 92 68.42
882 Anthony Quinn 0:42:20 M 60-64 M 30 68.35
883 Riccardo Crivellin 0:42:21 M 25-29 M 29 68.34
884 Peter Brunninghausen 0:42:22 M 55-59 M 63 68.31
885 Catherine Johnson 0:42:26 F 45-49 F 36 62.60
886 David Wagstaff 0:42:26 M 50-54 M 108 68.19
887 Kellie Wheelahan 0:42:27 F 30-34 F 34 62.56
888 Robert O'Brien 0:42:27 M 60-64 M 31 68.16
889 Tony Newcombe 0:42:29 M 55-59 M 64 68.11
890 Stan Willis 0:42:35 M 50-54 M 109 67.97
891 Elizabeth Harvey 0:42:39 F 55-59 F 16 62.18
892 Mark Williamson 0:42:43 F 40-44 F 42 62.06
893 Richard Green 0:42:44 M 45-49 M 109 67.72
894 Nigel Cameron 0:42:47 M 35-39 M 78 67.65
895 Michael Loveridge 0:42:50 M 50-54 M 110 67.59
896 John Stolz 0:42:52 M 50-54 M 111 67.53
897 George Alpen 0:42:52 M 60-64 M 32 67.53
898 Eleanor Quin 0:42:56 F 55-59 F 17 61.66
899 Pierre de Dassel 0:42:57 M 40-44 M 93 67.40
900 Alasdair Arthur 0:42:58 M 35-39 M 79 67.38
901 Leone Burridge 0:42:58 F 50-54 F 22 61.59
902 Dean Purtill 0:43:00 M 30-34 M 50 67.31
903 Kerry Rose 0:43:01 F 55-59 F 18 61.51
904 Norm Toward 0:43:01 M 60-64 M 33 67.30
905 Alison Hewitt 0:43:01 F 30-34 F 35 61.49
906 Cecily Black 0:43:02 F 55-59 F 19 61.49
907 Melissa Smith 0:43:04 F 35-39 F 35 61.41
908 Rebecca Templeman 0:43:05 F 12-15 F 22 61.37
909 Yasmin Nelson-Chapman 0:43:06 F 12-15 F 23 61.36
910 Bernard Nolan 0:43:08 M 55-59 M 65 67.11
911 Steven Parsons 0:43:10 M 50-54 M 112 67.06
912 Ray Kiely 0:43:10 M 50-54 M 113 67.06
913 Felicity Stening 0:43:10 F 30-34 F 36 61.22
914 James Reynolds 0:43:10 M 65-69 M 9 67.05
915 Bryan Raphael 0:43:20 M 55-59 M 66 66.79
916 Mike Watterson 0:43:21 M 60-64 M 34 66.78
917 Stephen Huntsman 0:43:22 M 45-49 M 110 66.74
918 Susan Jacobsen 0:43:26 F 45-49 F 37 60.71
919 Amanda Kyneur 0:43:27 F 35-39 F 36 60.71
920 Joanne Hindson 0:43:27 F 30-34 F 37 60.68
921 James Nicholson 0:43:28 M 50-54 M 114 66.60
922 Bevan Moir 0:43:28 M 25-29 M 30 66.59
923 Marie McDonald 0:43:29 F 50-54 F 23 60.63
924 Phillippa Church 0:43:30 F 40-44 F 43 60.61
925 Marx Stephan 0:43:31 M 35-39 M 80 66.52
926 Peter Horn 0:43:32 M 45-49 M 111 66.49
927 Amina Bhai 0:43:34 F 30-34 F 38 60.49
928 Julie Ferguson 0:43:34 F 40-44 F 44 60.48
929 David Goulding 0:43:34 M 50-54 M 115 66.43
930 Rebecca Gray 0:43:34 F 40-44 F 45 60.47
931 Julie Curtis 0:43:35 F 35-39 F 37 60.46
932 Stephen Hood 0:43:36 M 45-49 M 112 66.39
933 Loani McRae 0:43:38 F 40-44 F 46 60.36
934 Rick Adams 0:43:39 M 50-54 M 116 66.30
935 Jeffrey Garratt 0:43:42 M 55-59 M 67 66.24
936 James Warren 0:43:43 M 50-54 M 117 66.21
937 Amanda Middleton-Hyde 0:43:43 F 50-54 F 24 60.19
939 Sue McArthur 0:43:43 F 40-44 F 47 60.18
938 Nichollas Mathison 0:43:43 M 12-15 M 23 66.19
940 Nicole Howell 0:43:44 F 35-39 F 38 60.17
941 Liz Green 0:43:45 F 40-44 F 48 60.14
942 Selwyn Segall 0:43:47 M 50-54 M 118 66.10
943 Michael Lawrence-Slater 0:43:48 M 60-64 M 35 66.07
944 Geoff Purcell 0:43:50 M 60-64 M 36 66.03
945 Judith Blckburn 0:43:53 F 45-49 F 38 59.89
946 Tony Johnson 0:43:54 M 60-64 M 37 65.91
947 Nigel Hill 0:43:54 M 40-44 M 94 65.91
948 Sean Gibney 0:43:57 M 55-59 M 68 65.85
949 Mike Lewis 0:43:57 M 40-44 M 95 65.84
950 Greg O'Sullivan 0:44:01 M 45-49 M 113 65.73
951 Paul Mallam 0:44:08 M 45-49 M 114 65.55
952 Sally MacFarlane 0:44:10 F 55-59 F 20 59.34
953 Jill Connellan 0:44:14 F 45-49 F 39 59.24
954 Peter Beames 0:44:15 M 45-49 M 115 65.37
955 Lyall Elliot 0:44:19 M 50-54 M 119 65.26
956 Marcus O'Meara 0:44:20 M 30-34 M 51 65.25
957 Bill Bates 0:44:21 M 55-59 M 69 65.21
958 Simon Earthrowl 0:44:32 M 50-54 M 120 64.93
959 Peter Ware 0:44:36 M 55-59 M 70 64.83
960 Pamela Gerrish 0:44:38 F 55-59 F 21 58.48
961 Gabrielle Fuller 0:44:38 F 45-49 F 40 58.47
962 Peter Weaver 0:44:45 M 45-49 M 116 64.59
963 Lewis Crowe 0:44:47 M 55-59 M 71 64.53
965 Christopher Lawson 0:44:48 M 60-64 M 38 64.50
964 James Eden 0:44:48 M 45-49 M 117 64.50
966 Alison Mason 0:44:49 F 30-34 F 39 58.14
967 Rebecca Afflick 0:44:50 F 25-29 F 27 58.11
968 Karen Anderson 0:44:50 F 45-49 F 41 58.11
969 Jennifer Taylor 0:44:51 F 45-49 F 42 58.06
970 Mercades Mathison 0:44:55 F 12-15 F 24 57.96
971 John Hudson 0:44:59 M 55-59 M 72 64.24
972 Nicky Greenlaw 0:44:59 F 40-44 F 49 57.83
973 Kim Tanner 0:44:59 F 30-34 F 40 57.83
974 Susan Smith 0:45:00 F 50-54 F 25 57.78
975 Sian Breen 0:45:02 F 30-34 F 41 57.74
976 Stephen Rayner 0:45:03 M 45-49 M 118 64.14
977 Vivienne Degenhardt 0:45:03 F 55-59 F 22 57.70
978 Monika Sherratt 0:45:06 F 50-54 F 26 57.61
979 Keith Morgan 0:45:08 M 55-59 M 73 63.98
980 Margaret Rose 0:45:13 F 45-49 F 43 57.38
981 Keith Mountford 0:45:16 M 60-64 M 39 63.80
982 Gina Harris 0:45:17 F 50-54 F 27 57.25
983 Garry Jones 0:45:20 M 45-49 M 119 63.69
984 David Harris 0:45:20 M 55-59 M 74 63.68
985 Julie Elley 0:45:20 F 55-59 F 23 57.16
986 Lynda Body 0:45:24 F 25-29 F 28 57.04
987 Hugh MacNally 0:45:28 M 50-54 M 121 63.47
988 Anthony Smuts 0:45:31 M 50-54 M 122 63.41
989 Peter Byrne 0:45:36 M 40-44 M 96 63.27
990 Lesley Wall 0:45:39 F 55-59 F 24 56.58
991 Christine Beard 0:45:39 F 55-59 F 25 56.57
992 Mick Hooper 0:45:41 M 50-54 M 123 63.13
993 Sharne Wolff 0:45:42 F 40-44 F 50 56.48
994 Geoff Ross 0:45:47 M 75Up M 2 62.98
995 Gary Hahn 0:45:49 M 35-39 M 81 62.93
996 Jeffrey Kernot 0:45:49 M 65-69 M 10 62.92
997 Barry Carpenter 0:45:52 M 50-54 M 124 62.85
998 Lisa Sharpe 0:45:58 F 35-39 F 39 55.99
999 Joanne Bradbury 0:46:01 F 40-44 F 51 55.89
1000 Sandra Fuller 0:46:03 F 55-59 F 26 55.82
1001 Kathleen Armstrong 0:46:04 F 40-44 F 52 55.80
1002 Matthew Lynch 0:46:06 M 35-39 M 82 62.48
1003 Leila Fenton 0:46:07 F 50-54 F 28 55.70
1004 Siobhan Laffey-Gibney 0:46:08 F 40-44 F 53 55.67
1005 Max Barry Crummy 0:46:10 M 65-69 M 11 62.40
1006 Karina Brien 0:46:13 F 35-39 F 40 55.51
1007 Frank Coman 0:46:14 M 35-39 M 83 62.28
1008 Bethany Hosie 0:46:14 F 45-49 F 44 55.47
1009 Alain Teurquetil 0:46:17 M 40-44 M 97 62.22
1010 John Hatfield 0:46:22 M 45-49 M 120 62.08
1011 Michael McCabe 0:46:24 M 45-49 M 121 62.03
1012 Craig Charters 0:46:29 M 40-44 M 98 61.90
1013 Judy Zemek 0:46:29 F 45-49 F 45 55.00
1014 Peter Thomas 0:46:33 M 55-59 M 75 61.79
1015 Ian Jowett 0:46:35 M 40-44 M 99 61.74
1016 Trisha Feutrill 0:46:35 F 50-54 F 29 54.81
1017 Phil Jorgensen 0:46:39 M 45-49 M 122 61.65
1018 Dennis Spring 0:46:41 M 60-64 M 40 61.58
1019 Katie Evans 0:46:48 F 25-29 F 29 54.43
1020 Katie Robinson 0:46:49 F 50-54 F 30 54.38
1021 Stephen Maxwell 0:46:51 M 45-49 M 123 61.32
1022 Anthony Martin 0:47:01 M 40-44 M 100 61.07
1023 Beth Vockler 0:47:03 F 50-54 F 31 53.96
1024 Shannon Richards-Green 0:47:05 F 45-49 F 46 53.89
1025 Victoria Di Sisto 0:47:07 F 40-44 F 54 53.84
1026 Stephen Marks 0:47:08 M 55-59 M 76 60.88
1027 Belinda Smith 0:47:17 F 30-34 F 42 53.51
1028 Heather Nunn 0:47:21 F 30-34 F 43 53.38
1029 Mike Hallett 0:47:26 M 60-64 M 41 60.42
1030 Ian Borchert 0:47:32 M 50-54 M 125 60.27
1031 Alastair Duggin 0:47:34 M 55-59 M 77 60.20
1032 Sarah Beadman 0:47:38 F 40-44 F 55 52.87
1033 Michele Coker 0:47:44 F 45-49 F 47 52.67
1034 Suzanne Hayward 0:47:44 F 35-39 F 41 52.66
1035 Allan Scott 0:47:49 M 60-64 M 42 59.82
1036 Lisa Anne Parker 0:47:49 F 35-39 F 42 52.52
1037 Trevor Mutton 0:47:53 M 45-49 M 124 59.72
1038 Moya Harris 0:47:54 F 70-74 F 2 52.36
1039 Maria Mott 0:47:55 F 35-39 F 43 52.32
1040 Anne Carless 0:48:02 F 55-59 F 27 52.12
1041 John Fuller 0:48:08 M 60-64 M 43 59.32
1042 Caria Davidson 0:48:10 F 55-59 F 28 51.86
1043 Peter Murphy 0:48:18 M 35-39 M 84 59.07
1044 Peter Elliott 0:48:22 M 45-49 M 125 58.95
1045 Geoff Timms 0:48:23 M 40-44 M 101 58.93
1046 Peter Kendall 0:48:29 M 50-54 M 126 58.79
1047 Rosslyn Skinner 0:48:37 F 60-64 F 7 51.01
1048 Troy Barnett 0:48:39 M 40-44 M 102 58.52
1049 Anne Currey 0:48:39 F 50-54 F 32 50.93
1050 Andrew Priestley 0:48:41 M 40-44 M 103 58.48
1051 Jude Sweeney 0:48:48 F 35-39 F 44 50.67
1052 Leanne Witham 0:48:52 F 30-34 F 44 50.53
1053 Helen Huxley 0:48:55 F 45-49 F 48 50.44
1054 Julia Hall 0:49:03 F 30-34 F 45 50.19
1055 Antony Camilleri 0:49:22 M 35-39 M 85 57.41
1056 Marnie Munn 0:49:38 F 30-34 F 46 49.11
1057 Jenifer Miller 0:49:38 F 35-39 F 45 49.10
1058 Sue-Anne Chapman 0:49:45 F 30-34 F 47 48.88
1059 Keri Gazzard 0:49:58 F 55-59 F 29 48.48
1060 Bert Carter 0:50:11 M 65-69 M 12 56.13
1061 Murray Hale 0:50:21 M 55-59 M 78 55.87
1062 Kathleen MacKinnon 0:50:50 F 50-54 F 33 46.87
1063 Susette Kiely 0:51:15 F 50-54 F 34 46.08
1064 Andrew Harris 0:51:26 M 40-44 M 104 54.19
1065 Ronald Gerrish 0:51:31 M 55-59 M 79 54.05
1066 Kim Fowler 0:51:34 F 40-44 F 56 45.47
1067 Michelle Whiticker 0:51:46 F 40-44 F 57 45.11
1068 Wendy Boyd 0:51:54 F 45-49 F 49 44.85
1069 Jack Wright 0:51:57 M 75Up M 3 53.39
1070 Mandy Hatfield 0:52:13 F 45-49 F 50 44.26
1071 Stephane Pollak 0:52:17 F 35-39 F 46 44.12
1072 John Morris 0:52:22 M 45-49 M 126 52.72
1073 Anthony George 0:52:23 M 50-54 M 127 52.70
1074 Neill Latimer 0:52:25 M 75Up M 4 52.65
1075 Narelle L'Estrange 0:52:26 F 45-49 F 51 43.86
1076 Claire Hay 0:52:36 F 35-39 F 47 43.55
1077 Nancy Bikson 0:52:58 F 50-54 F 35 42.87
1078 Robert McDonald 0:53:02 M 45-49 M 127 51.70
1079 David Coyne 0:53:11 M 50-54 M 128 51.46
1080 Carol Adams 0:53:12 F 55-59 F 30 42.42
1081 Tony Patterson 0:53:16 M 55-59 M 80 51.33
1082 Russel Hughes 0:53:19 M 55-59 M 81 51.25
1083 Jennifer Gray 0:54:05 F 50-54 F 36 40.77
1084 Sally Rossi-Ford 0:54:21 F 45-49 F 52 40.26
1085 Ian Blunt 0:55:02 M 45-49 M 128 48.59
1086 Tim O'Neill 0:55:09 M 45-49 M 129 48.39
1088 Tanya Baini 0:56:39 F 30-34 F 48 35.95
1089 Moyra Burke-Smith 0:57:37 F 40-44 F 58 34.14
1091 John Sourry 0:58:00 M 60-64 M 44 43.96
1093 Mim Salkowski 0:58:50 F 40-44 F 59 31.85
1095 Jan Borsje 0:59:13 M 45-49 M 130 42.06
1096 Clare Mathison 0:59:54 F 30-34 F 49 29.86
1097 Allan Noble 1:00:30 M 40-44 M 105 40.07
1098 Ken Ross 1:01:53 M 60-64 M 45 37.91
1099 Dan Nuggent 1:02:04 M 45-49 M 131 37.62
1100 Michele Maxwell 1:09:44 F 45-49 F 53 11.45
1101 Ofer Sayag 1:11:37 M 35-39 M 86 22.75
1102 Lou Lockwood 1:11:44 F 45-49 F 54 7.69
1103 Paul Ellercamp 1:14:09 M 50-54 M 129 18.82
1104 Hinka Haisma 1:15:18 F 55-59 F 31 1.00
1105 Tony Corlass 1:25:35 M 60-64 M 46 1.00